sensor_id;sensor_type;location;lat;lon;timestamp;temperature;humidity
24560;DHT22;12727;49.934;8.656;2023-07-31T00:01:21;18.40;92.30
24560;DHT22;12727;49.934;8.656;2023-07-31T00:03:47;18.40;92.20
24560;DHT22;12727;49.934;8.656;2023-07-31T00:06:13;18.50;92.00
24560;DHT22;12727;49.934;8.656;2023-07-31T00:08:38;18.50;92.10
24560;DHT22;12727;49.934;8.656;2023-07-31T00:11:04;18.50;92.00
24560;DHT22;12727;49.934;8.656;2023-07-31T00:13:30;18.50;91.90
24560;DHT22;12727;49.934;8.656;2023-07-31T00:15:55;18.50;91.90
24560;DHT22;12727;49.934;8.656;2023-07-31T00:18:21;18.50;91.90
24560;DHT22;12727;49.934;8.656;2023-07-31T00:20:47;18.50;91.80
24560;DHT22;12727;49.934;8.656;2023-07-31T00:23:12;18.50;91.80
24560;DHT22;12727;49.934;8.656;2023-07-31T00:25:38;18.60;91.50
24560;DHT22;12727;49.934;8.656;2023-07-31T00:28:04;18.60;91.30
24560;DHT22;12727;49.934;8.656;2023-07-31T00:30:29;18.70;91.20
24560;DHT22;12727;49.934;8.656;2023-07-31T00:32:55;18.70;90.90
24560;DHT22;12727;49.934;8.656;2023-07-31T00:35:21;18.70;90.80
24560;DHT22;12727;49.934;8.656;2023-07-31T00:37:46;18.70;90.90
24560;DHT22;12727;49.934;8.656;2023-07-31T00:40:12;18.70;90.90
24560;DHT22;12727;49.934;8.656;2023-07-31T00:42:39;18.70;90.70
24560;DHT22;12727;49.934;8.656;2023-07-31T00:45:05;18.70;90.50
24560;DHT22;12727;49.934;8.656;2023-07-31T00:47:30;18.80;90.60
24560;DHT22;12727;49.934;8.656;2023-07-31T00:49:56;18.70;90.40
24560;DHT22;12727;49.934;8.656;2023-07-31T00:52:22;18.80;90.50
24560;DHT22;12727;49.934;8.656;2023-07-31T00:54:49;18.80;90.50
24560;DHT22;12727;49.934;8.656;2023-07-31T00:57:15;18.80;90.40
24560;DHT22;12727;49.934;8.656;2023-07-31T00:59:40;18.80;90.40
24560;DHT22;12727;49.934;8.656;2023-07-31T01:02:06;18.80;90.40
24560;DHT22;12727;49.934;8.656;2023-07-31T01:04:32;18.70;90.30
24560;DHT22;12727;49.934;8.656;2023-07-31T01:09:51;18.70;90.30
24560;DHT22;12727;49.934;8.656;2023-07-31T01:12:20;18.70;90.30
24560;DHT22;12727;49.934;8.656;2023-07-31T01:15:06;18.60;90.20
24560;DHT22;12727;49.934;8.656;2023-07-31T01:17:36;18.60;90.20
24560;DHT22;12727;49.934;8.656;2023-07-31T01:20:05;18.60;90.20
24560;DHT22;12727;49.934;8.656;2023-07-31T01:22:56;18.60;90.20
24560;DHT22;12727;49.934;8.656;2023-07-31T01:25:50;18.50;90.20
24560;DHT22;12727;49.934;8.656;2023-07-31T01:28:23;18.60;90.50
24560;DHT22;12727;49.934;8.656;2023-07-31T01:30:50;18.60;90.20
24560;DHT22;12727;49.934;8.656;2023-07-31T01:33:17;18.60;90.20
24560;DHT22;12727;49.934;8.656;2023-07-31T01:35:45;18.70;90.10
24560;DHT22;12727;49.934;8.656;2023-07-31T01:38:11;18.70;90.10
24560;DHT22;12727;49.934;8.656;2023-07-31T01:40:37;18.70;90.00
24560;DHT22;12727;49.934;8.656;2023-07-31T01:43:02;18.70;90.10
24560;DHT22;12727;49.934;8.656;2023-07-31T01:45:28;18.70;90.20
24560;DHT22;12727;49.934;8.656;2023-07-31T01:47:54;18.70;90.20
24560;DHT22;12727;49.934;8.656;2023-07-31T01:50:19;18.70;90.00
24560;DHT22;12727;49.934;8.656;2023-07-31T01:52:45;18.70;90.00
24560;DHT22;12727;49.934;8.656;2023-07-31T01:55:10;18.70;90.00
24560;DHT22;12727;49.934;8.656;2023-07-31T01:57:37;18.70;90.10
24560;DHT22;12727;49.934;8.656;2023-07-31T02:00:03;18.70;90.20
24560;DHT22;12727;49.934;8.656;2023-07-31T02:02:29;18.70;90.20
24560;DHT22;12727;49.934;8.656;2023-07-31T02:04:54;18.70;90.30
24560;DHT22;12727;49.934;8.656;2023-07-31T02:07:20;18.70;90.30
24560;DHT22;12727;49.934;8.656;2023-07-31T02:09:45;18.70;90.30
24560;DHT22;12727;49.934;8.656;2023-07-31T02:12:13;18.70;90.40
24560;DHT22;12727;49.934;8.656;2023-07-31T02:14:40;18.60;90.40
24560;DHT22;12727;49.934;8.656;2023-07-31T02:17:05;18.60;90.50
24560;DHT22;12727;49.934;8.656;2023-07-31T02:19:31;18.60;90.40
24560;DHT22;12727;49.934;8.656;2023-07-31T02:21:57;18.60;90.40
24560;DHT22;12727;49.934;8.656;2023-07-31T02:24:23;18.60;90.50
24560;DHT22;12727;49.934;8.656;2023-07-31T02:26:49;18.60;90.60
24560;DHT22;12727;49.934;8.656;2023-07-31T02:29:15;18.60;91.00
24560;DHT22;12727;49.934;8.656;2023-07-31T02:31:40;18.50;90.70
24560;DHT22;12727;49.934;8.656;2023-07-31T02:34:06;18.50;90.70
24560;DHT22;12727;49.934;8.656;2023-07-31T02:36:31;18.50;90.70
24560;DHT22;12727;49.934;8.656;2023-07-31T02:38:57;18.50;90.80
24560;DHT22;12727;49.934;8.656;2023-07-31T02:41:22;18.50;90.80
24560;DHT22;12727;49.934;8.656;2023-07-31T02:43:48;18.50;90.80
24560;DHT22;12727;49.934;8.656;2023-07-31T02:46:14;18.40;90.80
24560;DHT22;12727;49.934;8.656;2023-07-31T02:48:39;18.40;90.90
24560;DHT22;12727;49.934;8.656;2023-07-31T02:51:05;18.50;90.90
24560;DHT22;12727;49.934;8.656;2023-07-31T02:53:30;18.50;90.90
24560;DHT22;12727;49.934;8.656;2023-07-31T02:55:56;18.50;90.90
24560;DHT22;12727;49.934;8.656;2023-07-31T02:58:21;18.40;91.10
24560;DHT22;12727;49.934;8.656;2023-07-31T03:00:47;18.50;91.10
24560;DHT22;12727;49.934;8.656;2023-07-31T03:03:13;18.50;91.10
24560;DHT22;12727;49.934;8.656;2023-07-31T03:05:38;18.50;91.10
24560;DHT22;12727;49.934;8.656;2023-07-31T03:08:04;18.40;91.10
24560;DHT22;12727;49.934;8.656;2023-07-31T03:10:29;18.40;91.20
24560;DHT22;12727;49.934;8.656;2023-07-31T03:12:55;18.40;91.20
24560;DHT22;12727;49.934;8.656;2023-07-31T03:15:20;18.40;91.30
24560;DHT22;12727;49.934;8.656;2023-07-31T03:17:46;18.40;91.40
24560;DHT22;12727;49.934;8.656;2023-07-31T03:20:12;18.40;91.50
24560;DHT22;12727;49.934;8.656;2023-07-31T03:22:37;18.40;91.60
24560;DHT22;12727;49.934;8.656;2023-07-31T03:25:03;18.30;91.50
24560;DHT22;12727;49.934;8.656;2023-07-31T03:27:29;18.30;91.70
24560;DHT22;12727;49.934;8.656;2023-07-31T03:29:55;18.30;91.80
24560;DHT22;12727;49.934;8.656;2023-07-31T03:32:20;18.30;91.80
24560;DHT22;12727;49.934;8.656;2023-07-31T03:34:46;18.30;91.90
24560;DHT22;12727;49.934;8.656;2023-07-31T03:37:12;18.30;92.30
24560;DHT22;12727;49.934;8.656;2023-07-31T03:39:37;18.30;92.50
24560;DHT22;12727;49.934;8.656;2023-07-31T03:42:03;18.10;92.80
24560;DHT22;12727;49.934;8.656;2023-07-31T03:44:29;18.10;93.00
24560;DHT22;12727;49.934;8.656;2023-07-31T03:46:54;18.00;93.10
24560;DHT22;12727;49.934;8.656;2023-07-31T03:49:20;18.00;93.30
24560;DHT22;12727;49.934;8.656;2023-07-31T03:51:46;18.00;93.40
24560;DHT22;12727;49.934;8.656;2023-07-31T03:54:11;17.90;93.60
24560;DHT22;12727;49.934;8.656;2023-07-31T03:56:38;17.90;93.80
24560;DHT22;12727;49.934;8.656;2023-07-31T03:59:04;17.80;94.40
24560;DHT22;12727;49.934;8.656;2023-07-31T04:01:29;17.70;94.40
24560;DHT22;12727;49.934;8.656;2023-07-31T04:03:55;17.80;95.10
24560;DHT22;12727;49.934;8.656;2023-07-31T04:06:20;17.70;95.30
24560;DHT22;12727;49.934;8.656;2023-07-31T04:08:46;17.60;96.20
24560;DHT22;12727;49.934;8.656;2023-07-31T04:11:12;17.50;96.80
24560;DHT22;12727;49.934;8.656;2023-07-31T04:13:40;17.40;97.80
24560;DHT22;12727;49.934;8.656;2023-07-31T04:16:06;17.40;98.70
24560;DHT22;12727;49.934;8.656;2023-07-31T04:18:31;17.40;99.80
24560;DHT22;12727;49.934;8.656;2023-07-31T04:20:58;17.30;99.90
24560;DHT22;12727;49.934;8.656;2023-07-31T04:23:25;17.30;99.90
24560;DHT22;12727;49.934;8.656;2023-07-31T04:25:51;17.30;99.90
24560;DHT22;12727;49.934;8.656;2023-07-31T04:28:16;17.20;99.90
24560;DHT22;12727;49.934;8.656;2023-07-31T04:30:42;17.20;99.90
24560;DHT22;12727;49.934;8.656;2023-07-31T04:33:07;17.20;99.90
24560;DHT22;12727;49.934;8.656;2023-07-31T04:35:33;17.20;99.90
24560;DHT22;12727;49.934;8.656;2023-07-31T04:37:59;17.20;99.90
24560;DHT22;12727;49.934;8.656;2023-07-31T04:40:24;17.20;99.90
24560;DHT22;12727;49.934;8.656;2023-07-31T04:42:50;17.30;99.90
24560;DHT22;12727;49.934;8.656;2023-07-31T04:45:16;17.40;99.90
24560;DHT22;12727;49.934;8.656;2023-07-31T04:47:41;17.40;99.90
24560;DHT22;12727;49.934;8.656;2023-07-31T04:50:07;17.40;99.90
24560;DHT22;12727;49.934;8.656;2023-07-31T04:52:33;17.40;99.90
24560;DHT22;12727;49.934;8.656;2023-07-31T04:54:58;17.50;99.90
24560;DHT22;12727;49.934;8.656;2023-07-31T04:57:24;17.50;99.90
24560;DHT22;12727;49.934;8.656;2023-07-31T04:59:50;17.60;99.90
24560;DHT22;12727;49.934;8.656;2023-07-31T05:02:15;17.60;99.90
24560;DHT22;12727;49.934;8.656;2023-07-31T05:04:41;17.70;99.90
24560;DHT22;12727;49.934;8.656;2023-07-31T05:07:07;17.70;99.50
24560;DHT22;12727;49.934;8.656;2023-07-31T05:09:32;17.80;99.20
24560;DHT22;12727;49.934;8.656;2023-07-31T05:11:58;17.80;99.10
24560;DHT22;12727;49.934;8.656;2023-07-31T05:14:24;17.80;98.90
24560;DHT22;12727;49.934;8.656;2023-07-31T05:16:49;17.80;98.60
24560;DHT22;12727;49.934;8.656;2023-07-31T05:19:15;17.80;98.50
24560;DHT22;12727;49.934;8.656;2023-07-31T05:21:40;17.90;98.50
24560;DHT22;12727;49.934;8.656;2023-07-31T05:24:06;17.90;98.20
24560;DHT22;12727;49.934;8.656;2023-07-31T05:26:32;17.90;98.20
24560;DHT22;12727;49.934;8.656;2023-07-31T05:28:57;17.90;98.40
24560;DHT22;12727;49.934;8.656;2023-07-31T05:31:23;17.90;98.30
24560;DHT22;12727;49.934;8.656;2023-07-31T05:33:50;17.90;98.00
24560;DHT22;12727;49.934;8.656;2023-07-31T05:36:16;17.90;97.90
24560;DHT22;12727;49.934;8.656;2023-07-31T05:38:42;18.00;97.90
24560;DHT22;12727;49.934;8.656;2023-07-31T05:41:10;18.00;97.80
24560;DHT22;12727;49.934;8.656;2023-07-31T05:43:36;18.00;97.80
24560;DHT22;12727;49.934;8.656;2023-07-31T05:46:01;18.00;97.80
24560;DHT22;12727;49.934;8.656;2023-07-31T05:48:27;18.00;97.60
24560;DHT22;12727;49.934;8.656;2023-07-31T05:50:53;18.10;97.60
24560;DHT22;12727;49.934;8.656;2023-07-31T05:53:18;18.10;97.50
24560;DHT22;12727;49.934;8.656;2023-07-31T05:55:44;18.10;97.30
24560;DHT22;12727;49.934;8.656;2023-07-31T05:58:09;18.10;97.20
24560;DHT22;12727;49.934;8.656;2023-07-31T06:00:35;18.10;97.20
24560;DHT22;12727;49.934;8.656;2023-07-31T06:03:01;18.20;97.20
24560;DHT22;12727;49.934;8.656;2023-07-31T06:05:27;18.10;97.20
24560;DHT22;12727;49.934;8.656;2023-07-31T06:07:54;18.20;97.30
24560;DHT22;12727;49.934;8.656;2023-07-31T06:10:20;18.20;97.20
24560;DHT22;12727;49.934;8.656;2023-07-31T06:12:45;18.30;97.10
24560;DHT22;12727;49.934;8.656;2023-07-31T06:15:11;18.30;96.90
24560;DHT22;12727;49.934;8.656;2023-07-31T06:17:36;18.40;96.90
24560;DHT22;12727;49.934;8.656;2023-07-31T06:20:03;18.50;96.80
24560;DHT22;12727;49.934;8.656;2023-07-31T06:22:31;18.50;96.50
24560;DHT22;12727;49.934;8.656;2023-07-31T06:24:57;18.60;96.30
24560;DHT22;12727;49.934;8.656;2023-07-31T06:27:23;18.70;96.30
24560;DHT22;12727;49.934;8.656;2023-07-31T06:29:48;18.80;96.00
24560;DHT22;12727;49.934;8.656;2023-07-31T06:32:14;18.80;95.90
24560;DHT22;12727;49.934;8.656;2023-07-31T06:34:40;18.80;95.80
24560;DHT22;12727;49.934;8.656;2023-07-31T06:37:05;18.90;95.80
24560;DHT22;12727;49.934;8.656;2023-07-31T06:39:31;19.00;95.70
24560;DHT22;12727;49.934;8.656;2023-07-31T06:41:57;19.10;95.50
24560;DHT22;12727;49.934;8.656;2023-07-31T06:44:22;19.20;95.10
24560;DHT22;12727;49.934;8.656;2023-07-31T06:46:48;19.30;94.90
24560;DHT22;12727;49.934;8.656;2023-07-31T06:49:13;19.40;94.60
24560;DHT22;12727;49.934;8.656;2023-07-31T06:51:41;19.40;94.60
24560;DHT22;12727;49.934;8.656;2023-07-31T06:54:08;19.30;94.50
24560;DHT22;12727;49.934;8.656;2023-07-31T06:56:34;19.20;94.50
24560;DHT22;12727;49.934;8.656;2023-07-31T06:58:59;19.10;94.70
24560;DHT22;12727;49.934;8.656;2023-07-31T07:01:25;19.20;94.70
24560;DHT22;12727;49.934;8.656;2023-07-31T07:03:51;19.20;94.80
24560;DHT22;12727;49.934;8.656;2023-07-31T07:06:17;19.40;94.90
24560;DHT22;12727;49.934;8.656;2023-07-31T07:08:43;19.40;94.80
24560;DHT22;12727;49.934;8.656;2023-07-31T07:11:09;19.40;95.30
24560;DHT22;12727;49.934;8.656;2023-07-31T07:13:34;19.40;94.90
24560;DHT22;12727;49.934;8.656;2023-07-31T07:16:00;19.30;94.90
24560;DHT22;12727;49.934;8.656;2023-07-31T07:18:26;19.40;94.90
24560;DHT22;12727;49.934;8.656;2023-07-31T07:20:52;19.60;94.80
24560;DHT22;12727;49.934;8.656;2023-07-31T07:23:19;19.80;94.10
24560;DHT22;12727;49.934;8.656;2023-07-31T07:25:46;20.20;94.00
24560;DHT22;12727;49.934;8.656;2023-07-31T07:28:12;20.30;93.50
24560;DHT22;12727;49.934;8.656;2023-07-31T07:30:38;20.40;93.40
24560;DHT22;12727;49.934;8.656;2023-07-31T07:33:04;20.30;93.30
24560;DHT22;12727;49.934;8.656;2023-07-31T07:35:32;20.40;93.50
24560;DHT22;12727;49.934;8.656;2023-07-31T07:37:58;20.50;93.30
24560;DHT22;12727;49.934;8.656;2023-07-31T07:40:24;20.70;93.10
24560;DHT22;12727;49.934;8.656;2023-07-31T07:42:50;20.80;92.90
24560;DHT22;12727;49.934;8.656;2023-07-31T07:45:15;21.00;92.60
24560;DHT22;12727;49.934;8.656;2023-07-31T07:47:41;20.80;92.40
24560;DHT22;12727;49.934;8.656;2023-07-31T07:50:08;20.80;92.60
24560;DHT22;12727;49.934;8.656;2023-07-31T07:52:33;20.80;92.80
24560;DHT22;12727;49.934;8.656;2023-07-31T07:54:59;20.90;92.50
24560;DHT22;12727;49.934;8.656;2023-07-31T07:57:26;21.20;92.30
24560;DHT22;12727;49.934;8.656;2023-07-31T07:59:52;21.00;91.90
24560;DHT22;12727;49.934;8.656;2023-07-31T08:02:17;21.00;92.20
24560;DHT22;12727;49.934;8.656;2023-07-31T08:04:43;21.10;92.20
24560;DHT22;12727;49.934;8.656;2023-07-31T08:07:12;21.50;92.00
24560;DHT22;12727;49.934;8.656;2023-07-31T08:09:38;21.80;91.40
24560;DHT22;12727;49.934;8.656;2023-07-31T08:12:04;22.10;90.90
24560;DHT22;12727;49.934;8.656;2023-07-31T08:14:30;22.30;90.30
24560;DHT22;12727;49.934;8.656;2023-07-31T08:16:56;22.30;90.10
24560;DHT22;12727;49.934;8.656;2023-07-31T08:19:22;22.20;90.10
24560;DHT22;12727;49.934;8.656;2023-07-31T08:21:48;22.30;90.10
24560;DHT22;12727;49.934;8.656;2023-07-31T08:24:13;22.40;88.60
24560;DHT22;12727;49.934;8.656;2023-07-31T08:26:39;22.70;88.20
24560;DHT22;12727;49.934;8.656;2023-07-31T08:29:04;23.00;85.90
24560;DHT22;12727;49.934;8.656;2023-07-31T08:31:30;23.70;85.90
24560;DHT22;12727;49.934;8.656;2023-07-31T08:33:56;24.10;83.50
24560;DHT22;12727;49.934;8.656;2023-07-31T08:36:22;24.40;82.80
24560;DHT22;12727;49.934;8.656;2023-07-31T08:38:47;24.10;82.20
24560;DHT22;12727;49.934;8.656;2023-07-31T08:41:13;23.40;82.80
24560;DHT22;12727;49.934;8.656;2023-07-31T08:43:39;23.20;84.40
24560;DHT22;12727;49.934;8.656;2023-07-31T08:46:05;23.10;83.80
24560;DHT22;12727;49.934;8.656;2023-07-31T08:48:32;22.90;85.10
24560;DHT22;12727;49.934;8.656;2023-07-31T08:50:58;22.90;84.20
24560;DHT22;12727;49.934;8.656;2023-07-31T08:53:24;22.90;84.70
24560;DHT22;12727;49.934;8.656;2023-07-31T08:55:52;23.00;84.70
24560;DHT22;12727;49.934;8.656;2023-07-31T08:58:19;23.10;83.60
24560;DHT22;12727;49.934;8.656;2023-07-31T09:00:46;22.90;83.40
24560;DHT22;12727;49.934;8.656;2023-07-31T09:03:17;22.40;85.40
24560;DHT22;12727;49.934;8.656;2023-07-31T09:05:46;22.20;86.10
24560;DHT22;12727;49.934;8.656;2023-07-31T09:08:13;22.10;86.60
24560;DHT22;12727;49.934;8.656;2023-07-31T09:10:44;21.80;87.50
24560;DHT22;12727;49.934;8.656;2023-07-31T09:13:12;21.90;87.70
24560;DHT22;12727;49.934;8.656;2023-07-31T09:15:37;21.90;87.30
24560;DHT22;12727;49.934;8.656;2023-07-31T09:18:05;21.80;87.20
24560;DHT22;12727;49.934;8.656;2023-07-31T09:20:31;21.70;88.80
24560;DHT22;12727;49.934;8.656;2023-07-31T09:23:11;21.50;91.10
24560;DHT22;12727;49.934;8.656;2023-07-31T09:25:37;21.40;92.90
24560;DHT22;12727;49.934;8.656;2023-07-31T09:28:07;21.40;92.90
24560;DHT22;12727;49.934;8.656;2023-07-31T09:30:50;21.20;93.40
24560;DHT22;12727;49.934;8.656;2023-07-31T09:33:17;21.30;94.10
24560;DHT22;12727;49.934;8.656;2023-07-31T09:35:43;21.40;93.80
24560;DHT22;12727;49.934;8.656;2023-07-31T09:38:11;21.60;92.90
24560;DHT22;12727;49.934;8.656;2023-07-31T09:40:40;21.80;91.90
24560;DHT22;12727;49.934;8.656;2023-07-31T09:43:13;22.50;90.70
24560;DHT22;12727;49.934;8.656;2023-07-31T09:45:41;23.10;87.00
24560;DHT22;12727;49.934;8.656;2023-07-31T09:50:43;22.90;86.00
24560;DHT22;12727;49.934;8.656;2023-07-31T09:53:09;22.90;84.20
24560;DHT22;12727;49.934;8.656;2023-07-31T09:55:36;22.80;84.00
24560;DHT22;12727;49.934;8.656;2023-07-31T09:58:04;22.70;83.10
24560;DHT22;12727;49.934;8.656;2023-07-31T10:00:31;22.60;83.80
24560;DHT22;12727;49.934;8.656;2023-07-31T10:03:05;22.60;83.80
24560;DHT22;12727;49.934;8.656;2023-07-31T10:07:59;22.70;83.40
24560;DHT22;12727;49.934;8.656;2023-07-31T10:10:25;22.90;83.40
24560;DHT22;12727;49.934;8.656;2023-07-31T10:12:52;23.00;82.60
24560;DHT22;12727;49.934;8.656;2023-07-31T10:15:18;23.10;82.10
24560;DHT22;12727;49.934;8.656;2023-07-31T10:17:47;22.90;82.10
24560;DHT22;12727;49.934;8.656;2023-07-31T10:20:13;22.90;80.80
24560;DHT22;12727;49.934;8.656;2023-07-31T10:22:40;23.00;79.90
24560;DHT22;12727;49.934;8.656;2023-07-31T10:25:08;23.10;80.70
24560;DHT22;12727;49.934;8.656;2023-07-31T10:27:35;23.10;80.00
24560;DHT22;12727;49.934;8.656;2023-07-31T10:30:04;23.10;79.60
24560;DHT22;12727;49.934;8.656;2023-07-31T10:32:31;23.20;79.30
24560;DHT22;12727;49.934;8.656;2023-07-31T10:34:58;22.90;79.60
24560;DHT22;12727;49.934;8.656;2023-07-31T10:37:25;22.90;79.50
24560;DHT22;12727;49.934;8.656;2023-07-31T10:45:05;23.20;79.00
24560;DHT22;12727;49.934;8.656;2023-07-31T10:47:43;23.30;78.60
24560;DHT22;12727;49.934;8.656;2023-07-31T10:52:37;23.40;79.40
24560;DHT22;12727;49.934;8.656;2023-07-31T10:55:14;23.50;78.80
24560;DHT22;12727;49.934;8.656;2023-07-31T10:57:44;24.10;76.30
24560;DHT22;12727;49.934;8.656;2023-07-31T11:00:21;24.50;75.80
24560;DHT22;12727;49.934;8.656;2023-07-31T11:08:13;23.90;74.40
24560;DHT22;12727;49.934;8.656;2023-07-31T11:10:38;23.90;75.90
24560;DHT22;12727;49.934;8.656;2023-07-31T11:13:04;23.80;75.60
24560;DHT22;12727;49.934;8.656;2023-07-31T11:15:31;23.50;76.00
24560;DHT22;12727;49.934;8.656;2023-07-31T11:17:56;23.20;77.20
24560;DHT22;12727;49.934;8.656;2023-07-31T11:20:24;23.10;77.80
24560;DHT22;12727;49.934;8.656;2023-07-31T11:22:50;23.00;77.60
24560;DHT22;12727;49.934;8.656;2023-07-31T11:25:16;22.80;78.30
24560;DHT22;12727;49.934;8.656;2023-07-31T11:27:43;22.80;78.70
24560;DHT22;12727;49.934;8.656;2023-07-31T11:30:09;22.80;79.20
24560;DHT22;12727;49.934;8.656;2023-07-31T11:32:38;23.10;78.60
24560;DHT22;12727;49.934;8.656;2023-07-31T11:35:04;23.60;77.90
24560;DHT22;12727;49.934;8.656;2023-07-31T11:37:44;24.00;76.90
24560;DHT22;12727;49.934;8.656;2023-07-31T11:40:10;24.40;75.60
24560;DHT22;12727;49.934;8.656;2023-07-31T11:42:36;24.50;73.80
24560;DHT22;12727;49.934;8.656;2023-07-31T11:45:05;24.30;74.20
24560;DHT22;12727;49.934;8.656;2023-07-31T11:47:33;24.40;74.20
24560;DHT22;12727;49.934;8.656;2023-07-31T11:50:01;24.20;74.90
24560;DHT22;12727;49.934;8.656;2023-07-31T11:52:34;24.10;75.70
24560;DHT22;12727;49.934;8.656;2023-07-31T11:55:03;23.80;76.10
24560;DHT22;12727;49.934;8.656;2023-07-31T11:57:29;23.60;77.50
24560;DHT22;12727;49.934;8.656;2023-07-31T11:59:55;23.40;77.90
24560;DHT22;12727;49.934;8.656;2023-07-31T12:02:22;23.30;77.70
24560;DHT22;12727;49.934;8.656;2023-07-31T12:04:48;23.20;78.50
24560;DHT22;12727;49.934;8.656;2023-07-31T12:07:13;23.30;78.10
24560;DHT22;12727;49.934;8.656;2023-07-31T12:09:53;23.20;78.20
24560;DHT22;12727;49.934;8.656;2023-07-31T12:12:21;23.30;77.60
24560;DHT22;12727;49.934;8.656;2023-07-31T12:14:47;23.40;78.90
24560;DHT22;12727;49.934;8.656;2023-07-31T12:17:14;23.60;78.30
24560;DHT22;12727;49.934;8.656;2023-07-31T12:19:40;23.60;77.80
24560;DHT22;12727;49.934;8.656;2023-07-31T12:22:15;23.50;78.00
24560;DHT22;12727;49.934;8.656;2023-07-31T12:24:43;23.20;78.00
24560;DHT22;12727;49.934;8.656;2023-07-31T12:27:14;23.10;78.50
24560;DHT22;12727;49.934;8.656;2023-07-31T12:29:41;23.00;79.30
24560;DHT22;12727;49.934;8.656;2023-07-31T12:32:21;22.90;79.60
24560;DHT22;12727;49.934;8.656;2023-07-31T12:34:48;22.80;79.90
24560;DHT22;12727;49.934;8.656;2023-07-31T12:37:14;22.60;80.00
24560;DHT22;12727;49.934;8.656;2023-07-31T12:39:39;22.50;80.00
24560;DHT22;12727;49.934;8.656;2023-07-31T12:42:05;22.50;80.10
24560;DHT22;12727;49.934;8.656;2023-07-31T12:44:31;22.50;80.50
24560;DHT22;12727;49.934;8.656;2023-07-31T12:46:57;22.50;80.50
24560;DHT22;12727;49.934;8.656;2023-07-31T12:49:22;22.50;80.70
24560;DHT22;12727;49.934;8.656;2023-07-31T12:51:48;22.50;80.40
24560;DHT22;12727;49.934;8.656;2023-07-31T12:54:14;22.50;80.60
24560;DHT22;12727;49.934;8.656;2023-07-31T12:56:40;22.50;80.70
24560;DHT22;12727;49.934;8.656;2023-07-31T12:59:05;22.60;80.60
24560;DHT22;12727;49.934;8.656;2023-07-31T13:01:31;22.70;80.50
24560;DHT22;12727;49.934;8.656;2023-07-31T13:03:57;22.80;80.40
24560;DHT22;12727;49.934;8.656;2023-07-31T13:06:24;22.90;80.30
24560;DHT22;12727;49.934;8.656;2023-07-31T13:08:50;22.90;80.10
24560;DHT22;12727;49.934;8.656;2023-07-31T13:11:15;22.90;80.30
24560;DHT22;12727;49.934;8.656;2023-07-31T13:13:41;22.90;80.00
24560;DHT22;12727;49.934;8.656;2023-07-31T13:16:07;22.90;80.30
24560;DHT22;12727;49.934;8.656;2023-07-31T13:18:32;22.90;80.00
24560;DHT22;12727;49.934;8.656;2023-07-31T13:20:58;23.00;79.80
24560;DHT22;12727;49.934;8.656;2023-07-31T13:23:23;23.20;79.80
24560;DHT22;12727;49.934;8.656;2023-07-31T13:25:49;23.40;79.50
24560;DHT22;12727;49.934;8.656;2023-07-31T13:28:14;23.50;79.60
24560;DHT22;12727;49.934;8.656;2023-07-31T13:30:40;23.50;78.90
24560;DHT22;12727;49.934;8.656;2023-07-31T13:33:05;23.40;78.80
24560;DHT22;12727;49.934;8.656;2023-07-31T13:35:31;23.20;78.20
24560;DHT22;12727;49.934;8.656;2023-07-31T13:37:57;23.00;78.40
24560;DHT22;12727;49.934;8.656;2023-07-31T13:40:22;23.10;78.60
24560;DHT22;12727;49.934;8.656;2023-07-31T13:42:48;23.20;78.60
24560;DHT22;12727;49.934;8.656;2023-07-31T13:45:14;23.30;78.80
24560;DHT22;12727;49.934;8.656;2023-07-31T13:47:39;23.30;78.60
24560;DHT22;12727;49.934;8.656;2023-07-31T13:50:05;23.20;78.30
24560;DHT22;12727;49.934;8.656;2023-07-31T13:52:31;23.20;78.30
24560;DHT22;12727;49.934;8.656;2023-07-31T13:54:57;23.10;78.60
24560;DHT22;12727;49.934;8.656;2023-07-31T13:57:22;23.20;79.20
24560;DHT22;12727;49.934;8.656;2023-07-31T13:59:49;23.10;80.10
24560;DHT22;12727;49.934;8.656;2023-07-31T14:02:14;23.10;79.20
24560;DHT22;12727;49.934;8.656;2023-07-31T14:04:40;23.00;79.60
24560;DHT22;12727;49.934;8.656;2023-07-31T14:07:06;22.90;79.90
24560;DHT22;12727;49.934;8.656;2023-07-31T14:09:32;22.90;80.00
24560;DHT22;12727;49.934;8.656;2023-07-31T14:11:58;22.80;80.50
24560;DHT22;12727;49.934;8.656;2023-07-31T14:14:23;22.80;80.70
24560;DHT22;12727;49.934;8.656;2023-07-31T14:16:49;22.70;80.90
24560;DHT22;12727;49.934;8.656;2023-07-31T14:19:14;22.70;81.20
24560;DHT22;12727;49.934;8.656;2023-07-31T14:21:40;22.60;81.60
24560;DHT22;12727;49.934;8.656;2023-07-31T14:24:06;22.60;81.90
24560;DHT22;12727;49.934;8.656;2023-07-31T14:26:31;22.50;81.60
24560;DHT22;12727;49.934;8.656;2023-07-31T14:28:57;22.50;82.10
24560;DHT22;12727;49.934;8.656;2023-07-31T14:31:23;22.50;82.30
24560;DHT22;12727;49.934;8.656;2023-07-31T14:33:48;22.40;82.60
24560;DHT22;12727;49.934;8.656;2023-07-31T14:36:15;22.50;82.50
24560;DHT22;12727;49.934;8.656;2023-07-31T14:38:40;22.40;82.60
24560;DHT22;12727;49.934;8.656;2023-07-31T14:41:06;22.30;82.70
24560;DHT22;12727;49.934;8.656;2023-07-31T14:43:32;22.30;82.70
24560;DHT22;12727;49.934;8.656;2023-07-31T14:45:57;22.20;82.50
24560;DHT22;12727;49.934;8.656;2023-07-31T14:48:25;22.20;82.60
24560;DHT22;12727;49.934;8.656;2023-07-31T14:50:51;22.20;82.90
24560;DHT22;12727;49.934;8.656;2023-07-31T14:53:17;22.20;83.00
24560;DHT22;12727;49.934;8.656;2023-07-31T14:55:42;22.20;82.60
24560;DHT22;12727;49.934;8.656;2023-07-31T14:58:08;22.20;82.40
24560;DHT22;12727;49.934;8.656;2023-07-31T15:00:36;22.20;82.50
24560;DHT22;12727;49.934;8.656;2023-07-31T15:03:03;22.20;82.60
24560;DHT22;12727;49.934;8.656;2023-07-31T15:05:28;22.20;82.60
24560;DHT22;12727;49.934;8.656;2023-07-31T15:07:54;22.30;82.70
24560;DHT22;12727;49.934;8.656;2023-07-31T15:10:20;22.30;82.60
24560;DHT22;12727;49.934;8.656;2023-07-31T15:12:45;22.30;82.60
24560;DHT22;12727;49.934;8.656;2023-07-31T15:15:11;22.20;82.80
24560;DHT22;12727;49.934;8.656;2023-07-31T15:17:37;22.20;82.80
24560;DHT22;12727;49.934;8.656;2023-07-31T15:20:03;22.10;83.10
24560;DHT22;12727;49.934;8.656;2023-07-31T15:22:29;22.10;83.40
24560;DHT22;12727;49.934;8.656;2023-07-31T15:24:55;22.00;83.70
24560;DHT22;12727;49.934;8.656;2023-07-31T15:27:21;22.00;84.00
24560;DHT22;12727;49.934;8.656;2023-07-31T15:29:46;22.00;84.30
24560;DHT22;12727;49.934;8.656;2023-07-31T15:32:12;22.00;84.30
24560;DHT22;12727;49.934;8.656;2023-07-31T15:34:38;21.90;84.40
24560;DHT22;12727;49.934;8.656;2023-07-31T15:37:03;22.00;84.80
24560;DHT22;12727;49.934;8.656;2023-07-31T15:39:29;22.00;85.20
24560;DHT22;12727;49.934;8.656;2023-07-31T15:41:55;21.90;85.40
24560;DHT22;12727;49.934;8.656;2023-07-31T15:44:20;22.00;85.20
24560;DHT22;12727;49.934;8.656;2023-07-31T15:46:47;22.00;84.90